Time;durP1;ratioP1;P1;durP2;ratioP2;P2;SDS_P1;SDS_P2;PMS_P1;PMS_P2;Temp;Humidity;BMP_temperature;BMP_pressure;BME280_temperature;BME280_humidity;BME280_pressure;Samples;Min_cycle;Max_cycle;Signal;HPM_P1;HPM_P2
2021/05/06 00:31:38;;;;;;;3.83;3.50;;;7.00;99.90;;;;;;5044181;28;20235;-49
2021/05/06 00:34:00;;;;;;;6.20;3.77;;;7.00;99.90;;;;;;5036276;28;20213;-50
2021/05/06 00:36:27;;;;;;;6.43;4.37;;;7.10;99.90;;;;;;5035975;28;20299;-50
2021/05/06 00:38:57;;;;;;;5.17;4.10;;;7.20;99.90;;;;;;5035531;28;20237;-50
2021/05/06 01:07:19;;;;;;;4.73;4.27;;;7.00;99.90;;;;;;5039124;28;20200;-49
2021/05/06 01:12:28;;;;;;;4.50;4.10;;;7.10;99.90;;;;;;5039318;28;20649;-49
2021/05/06 01:14:55;;;;;;;6.73;5.20;;;7.00;99.90;;;;;;5038648;28;20301;-50
2021/05/06 01:17:21;;;;;;;6.50;4.90;;;6.80;99.90;;;;;;5038722;28;20402;-49
2021/05/06 01:19:49;;;;;;;4.93;4.10;;;6.50;99.90;;;;;;5033622;28;20280;-49
2021/05/06 01:22:16;;;;;;;5.63;4.83;;;6.60;99.90;;;;;;5038392;28;20378;-50
2021/05/06 01:24:46;;;;;;;5.73;4.70;;;6.80;99.90;;;;;;5032306;28;20201;-50
2021/05/06 01:27:17;;;;;;;6.57;5.37;;;6.80;99.90;;;;;;5037547;28;20318;-49
2021/05/06 01:32:34;;;;;;;5.10;4.60;;;6.80;99.90;;;;;;5038228;28;20909;-51
2021/05/06 01:35:05;;;;;;;6.23;4.97;;;6.70;99.90;;;;;;5032614;28;20769;-50
2021/05/06 01:42:48;;;;;;;5.70;5.00;;;6.60;99.90;;;;;;5038765;28;20295;-50
2021/05/06 01:47:57;;;;;;;5.50;4.80;;;6.60;99.90;;;;;;5038681;28;20219;-50
2021/05/06 01:50:50;;;;;;;5.33;4.60;;;6.60;99.90;;;;;;5038655;28;20588;-49
2021/05/06 01:59:08;;;;;;;5.77;4.87;;;6.70;99.90;;;;;;5045855;28;20215;-49
2021/05/06 02:01:34;;;;;;;7.97;5.37;;;6.60;99.90;;;;;;5038704;28;20297;-50
2021/05/06 02:04:05;;;;;;;7.53;5.50;;;6.60;99.90;;;;;;5038045;28;20240;-49
2021/05/06 02:06:31;;;;;;;6.33;5.13;;;6.70;99.90;;;;;;5037785;28;20344;-50
2021/05/06 02:09:01;;;;;;;6.20;5.07;;;6.60;99.90;;;;;;5037498;28;20219;-50
2021/05/06 02:11:27;;;;;;;7.47;5.30;;;6.50;99.90;;;;;;5038370;28;20208;-50
2021/05/06 02:13:55;;;;;;;7.33;5.77;;;6.60;99.90;;;;;;5038143;28;20290;-49
2021/05/06 02:16:33;;;;;;;5.93;5.33;;;6.60;99.90;;;;;;5037143;28;20201;-50
2021/05/06 02:19:00;;;;;;;7.07;6.20;;;6.70;99.90;;;;;;5038023;28;20208;-50
2021/05/06 02:21:27;;;;;;;5.73;5.07;;;6.70;99.90;;;;;;5033044;28;20208;-49
2021/05/06 02:23:53;;;;;;;5.87;5.03;;;6.70;99.90;;;;;;5031459;28;20255;-50
2021/05/06 02:26:19;;;;;;;5.60;4.70;;;6.80;99.90;;;;;;5036606;28;20572;-49
2021/05/06 02:28:46;;;;;;;5.60;4.97;;;6.80;99.90;;;;;;5037701;28;20292;-49
2021/05/06 02:31:14;;;;;;;7.37;5.37;;;6.60;99.90;;;;;;5036833;28;20569;-49
2021/05/06 02:33:44;;;;;;;6.60;5.80;;;6.40;99.90;;;;;;5037582;28;20249;-49
2021/05/06 02:36:11;;;;;;;7.30;5.20;;;6.40;99.90;;;;;;5037163;28;20205;-49
2021/05/06 02:38:38;;;;;;;6.53;5.57;;;6.50;99.90;;;;;;5037406;28;20211;-49
2021/05/06 02:41:05;;;;;;;5.67;5.07;;;6.40;99.90;;;;;;5036625;28;20258;-49
2021/05/06 02:43:32;;;;;;;6.13;5.53;;;6.50;99.90;;;;;;5038106;28;20599;-49
2021/05/06 02:45:58;;;;;;;6.07;5.47;;;6.40;99.90;;;;;;5036809;28;20311;-49
2021/05/06 02:48:24;;;;;;;6.97;5.70;;;6.30;99.90;;;;;;5037897;28;20683;-49
2021/05/06 02:50:55;;;;;;;6.10;5.50;;;6.20;99.90;;;;;;5037497;28;20243;-49
2021/05/06 02:53:24;;;;;;;6.03;4.83;;;6.00;99.90;;;;;;5036731;28;20209;-49
2021/05/06 03:03:50;;;;;;;8.07;6.13;;;6.10;99.90;;;;;;5037036;28;20244;-49
2021/05/06 03:06:28;;;;;;;6.93;6.20;;;6.20;99.90;;;;;;5037154;28;20241;-49
2021/05/06 03:08:59;;;;;;;9.63;5.97;;;6.30;99.90;;;;;;5034633;28;20311;-49
2021/05/06 03:24:25;;;;;;;10.37;7.57;;;6.20;99.90;;;;;;5037004;28;20282;-49
2021/05/06 03:26:53;;;;;;;11.40;7.90;;;6.10;99.90;;;;;;5036455;28;20224;-50
2021/05/06 03:29:24;;;;;;;8.10;6.83;;;5.90;99.90;;;;;;5035796;28;20580;-49
2021/05/06 03:32:07;;;;;;;10.87;8.13;;;6.10;99.90;;;;;;5035917;28;20228;-49
2021/05/06 04:12:34;;;;;;;13.83;9.10;;;5.60;99.90;;;;;;5036509;28;20304;-49
2021/05/06 04:30:58;;;;;;;10.80;8.40;;;5.70;99.90;;;;;;5035921;28;20200;-50
2021/05/06 04:36:15;;;;;;;10.37;8.60;;;5.70;99.90;;;;;;5038724;28;20207;-50
2021/05/06 04:38:42;;;;;;;10.90;8.93;;;5.70;99.90;;;;;;5034716;28;20239;-50
2021/05/06 04:41:21;;;;;;;9.97;8.40;;;5.70;99.90;;;;;;5039538;28;20603;-50
2021/05/06 04:54:41;;;;;;;11.40;8.00;;;5.80;99.90;;;;;;5038791;28;20302;-50
2021/05/06 05:05:31;;;;;;;9.83;7.43;;;5.90;99.90;;;;;;5033612;28;21488;-51
2021/05/06 05:08:04;;;;;;;10.00;7.03;;;6.00;99.90;;;;;;5039085;28;20229;-50
2021/05/06 05:18:34;;;;;;;7.63;6.40;;;6.00;99.90;;;;;;5033557;28;20209;-50
2021/05/06 05:23:18;;;;;;;8.23;6.10;;;5.90;99.90;;;;;;5038521;28;20235;-50
2021/05/06 05:24:04;;;;;;;7.90;6.43;;;6.20;99.90;;;;;;5039183;28;20231;-50
2021/05/06 05:26:31;;;;;;;8.03;6.60;;;6.00;99.90;;;;;;5039527;28;20270;-50
2021/05/06 05:28:57;;;;;;;8.27;6.83;;;5.90;99.90;;;;;;5039007;28;20639;-50
2021/05/06 05:31:23;;;;;;;8.53;6.97;;;6.00;99.90;;;;;;5036390;28;20212;-50
2021/05/06 05:33:55;;;;;;;8.70;6.77;;;6.10;99.90;;;;;;5038523;28;20236;-50
2021/05/06 05:36:23;;;;;;;10.33;7.67;;;6.20;99.90;;;;;;5038375;28;20563;-51
2021/05/06 05:38:56;;;;;;;11.70;8.17;;;6.20;99.90;;;;;;5037993;28;20255;-50
2021/05/06 05:47:18;;;;;;;12.20;8.97;;;6.20;99.90;;;;;;5037996;28;20617;-49
2021/05/06 05:55:15;;;;;;;12.70;9.67;;;6.30;99.90;;;;;;5032554;28;20208;-50
2021/05/06 05:57:43;;;;;;;13.93;9.47;;;6.40;99.90;;;;;;5039223;28;20204;-51
2021/05/06 06:00:10;;;;;;;14.40;10.10;;;6.40;99.90;;;;;;5031876;28;20601;-50
2021/05/06 06:02:38;;;;;;;13.77;9.83;;;6.30;99.90;;;;;;5032053;28;20438;-50
2021/05/06 06:05:06;;;;;;;13.17;9.47;;;6.40;99.90;;;;;;5038977;28;20219;-50
2021/05/06 06:07:33;;;;;;;15.93;9.50;;;6.40;99.90;;;;;;5038020;28;20283;-51
2021/05/06 06:09:59;;;;;;;15.23;10.13;;;6.60;99.90;;;;;;5037870;28;20264;-51
2021/05/06 06:12:26;;;;;;;14.50;10.07;;;6.70;99.90;;;;;;5038281;28;20205;-50
2021/05/06 06:15:04;;;;;;;15.53;10.40;;;6.80;99.90;;;;;;5037582;28;20251;-51
2021/05/06 06:17:38;;;;;;;15.60;10.83;;;6.50;99.90;;;;;;5039043;28;20510;-51
2021/05/06 06:20:05;;;;;;;16.17;10.27;;;6.80;99.90;;;;;;5037594;28;20200;-50
2021/05/06 06:22:32;;;;;;;13.70;10.67;;;6.90;99.90;;;;;;5037736;28;20200;-50
2021/05/06 06:25:01;;;;;;;15.33;10.63;;;6.80;99.90;;;;;;5037446;28;20239;-51
2021/05/06 06:27:29;;;;;;;15.13;10.67;;;7.10;99.90;;;;;;5038636;28;20311;-50
2021/05/06 06:29:56;;;;;;;14.30;10.33;;;7.20;99.90;;;;;;5031352;28;20281;-50
2021/05/06 06:32:22;;;;;;;14.47;11.00;;;7.20;99.90;;;;;;5037937;28;20341;-51
2021/05/06 06:34:49;;;;;;;13.17;9.90;;;7.00;99.90;;;;;;5038006;28;20204;-51
2021/05/06 06:37:16;;;;;;;14.83;11.47;;;7.10;99.90;;;;;;5036166;28;20216;-51
2021/05/06 06:39:45;;;;;;;15.20;11.30;;;7.20;99.90;;;;;;5036606;28;20515;-51
2021/05/06 06:42:11;;;;;;;18.33;12.50;;;7.30;99.90;;;;;;5038068;28;20208;-50
2021/05/06 06:44:38;;;;;;;18.60;12.60;;;7.20;99.90;;;;;;5036507;28;20246;-51
2021/05/06 06:47:07;;;;;;;20.00;13.43;;;7.40;99.90;;;;;;5036800;28;20258;-51
2021/05/06 06:49:39;;;;;;;19.47;13.27;;;7.50;99.90;;;;;;5036914;28;20210;-51
2021/05/06 06:52:08;;;;;;;20.50;13.80;;;7.20;99.90;;;;;;5037285;28;20295;-51
2021/05/06 06:54:35;;;;;;;19.50;13.67;;;7.10;99.90;;;;;;5035786;28;20307;-49
2021/05/06 06:57:03;;;;;;;19.33;14.30;;;7.20;99.90;;;;;;5037852;28;20211;-49
2021/05/06 06:59:30;;;;;;;23.30;14.13;;;7.10;99.90;;;;;;5036153;28;20255;-50
2021/05/06 07:01:56;;;;;;;21.43;14.67;;;7.10;99.90;;;;;;5037189;28;20499;-52
2021/05/06 07:04:22;;;;;;;18.47;13.27;;;7.00;99.90;;;;;;5035984;28;20227;-52
2021/05/06 07:06:49;;;;;;;16.90;12.20;;;7.10;99.90;;;;;;5037700;28;20204;-52
2021/05/06 07:09:15;;;;;;;20.87;13.60;;;7.10;99.90;;;;;;5037088;28;20728;-52
2021/05/06 07:11:41;;;;;;;19.50;14.50;;;7.10;99.90;;;;;;5038362;28;20239;-52
2021/05/06 07:14:08;;;;;;;17.93;12.90;;;7.30;99.90;;;;;;5037498;28;20307;-52
2021/05/06 07:16:34;;;;;;;19.93;13.83;;;7.30;99.90;;;;;;5031589;28;20288;-52
2021/05/06 07:19:02;;;;;;;20.77;14.60;;;7.30;99.90;;;;;;5037303;28;20658;-51
2021/05/06 07:21:28;;;;;;;17.33;13.07;;;7.20;99.90;;;;;;5036271;28;20570;-51
2021/05/06 07:23:55;;;;;;;17.93;13.73;;;7.30;99.90;;;;;;5037561;28;20690;-52
2021/05/06 07:26:26;;;;;;;20.67;13.83;;;7.60;99.90;;;;;;5037081;28;20290;-51
2021/05/06 07:28:54;;;;;;;21.03;13.80;;;7.70;99.90;;;;;;5037506;28;20296;-51
2021/05/06 07:31:23;;;;;;;17.50;13.17;;;8.10;99.90;;;;;;5034348;28;20201;-52
2021/05/06 07:33:51;;;;;;;17.50;12.57;;;8.40;99.90;;;;;;5035256;28;20248;-52
2021/05/06 07:36:21;;;;;;;17.93;13.10;;;8.60;99.90;;;;;;5036435;28;20525;-51
2021/05/06 07:38:51;;;;;;;18.47;13.73;;;8.40;99.90;;;;;;5037439;28;20228;-52
2021/05/06 07:41:21;;;;;;;16.30;12.53;;;8.70;99.90;;;;;;5036241;28;20204;-52
2021/05/06 07:43:51;;;;;;;17.20;13.27;;;9.00;99.90;;;;;;5036999;28;20237;-52
2021/05/06 07:46:21;;;;;;;19.20;12.33;;;8.50;99.90;;;;;;5035650;28;20295;-52
2021/05/06 07:48:52;;;;;;;17.10;12.90;;;8.60;99.90;;;;;;5037557;28;20214;-51
2021/05/06 07:51:23;;;;;;;14.57;11.87;;;8.60;99.90;;;;;;5037163;28;20204;-51
2021/05/06 07:53:54;;;;;;;14.30;11.43;;;8.60;99.90;;;;;;5037627;28;20290;-52
2021/05/06 07:56:25;;;;;;;16.27;11.17;;;8.60;99.90;;;;;;5038426;28;20665;-52
2021/05/06 07:58:51;;;;;;;13.73;11.30;;;8.40;99.90;;;;;;5037656;28;20217;-53
2021/05/06 08:01:18;;;;;;;15.83;12.20;;;8.40;99.90;;;;;;5031294;28;20207;-52
2021/05/06 08:03:45;;;;;;;12.43;11.10;;;8.60;99.90;;;;;;5037053;28;20273;-52
2021/05/06 08:06:15;;;;;;;14.23;11.73;;;8.50;99.90;;;;;;5038450;28;20221;-52
2021/05/06 08:08:42;;;;;;;14.30;11.23;;;8.60;99.90;;;;;;5040552;28;20295;-52
2021/05/06 08:11:09;;;;;;;11.60;9.80;;;8.90;99.90;;;;;;5041545;28;20240;-53
2021/05/06 08:13:35;;;;;;;13.63;10.40;;;8.80;1.00;;;;;;5041096;28;20730;-52
2021/05/06 08:16:02;;;;;;;13.23;9.40;;;8.50;1.00;;;;;;5039943;28;20298;-52
2021/05/06 08:18:28;;;;;;;11.93;9.30;;;8.40;1.00;;;;;;5040889;28;20216;-52
2021/05/06 08:20:55;;;;;;;14.27;10.67;;;8.60;1.00;;;;;;5035142;28;20238;-52
2021/05/06 08:23:21;;;;;;;12.43;9.17;;;8.80;1.00;;;;;;5040319;28;20254;-52
2021/05/06 08:25:49;;;;;;;13.50;9.53;;;8.90;1.00;;;;;;5040922;28;20637;-52
2021/05/06 08:28:22;;;;;;;12.33;10.27;;;8.80;99.90;;;;;;5040139;28;20275;-52
2021/05/06 08:30:49;;;;;;;10.60;9.50;;;9.10;99.90;;;;;;5039815;28;20204;-52
2021/05/06 08:33:15;;;;;;;11.10;9.60;;;9.40;1.00;;;;;;5039786;28;20297;-52
2021/05/06 08:35:42;;;;;;;9.60;8.60;;;9.30;92.50;;;;;;5040688;28;20692;-52
2021/05/06 08:38:08;;;;;;;9.63;8.47;;;9.30;1.00;;;;;;5039069;28;20578;-52
2021/05/06 08:40:36;;;;;;;10.80;9.17;;;9.60;99.90;;;;;;5040196;28;20200;-52
2021/05/06 08:43:09;;;;;;;11.43;8.87;;;9.40;1.00;;;;;;5040116;28;20226;-52
2021/05/06 08:45:41;;;;;;;10.70;9.60;;;9.20;99.90;;;;;;5034037;28;20200;-52
2021/05/06 08:48:08;;;;;;;12.67;10.23;;;9.00;99.90;;;;;;5042770;28;20203;-52
2021/05/06 08:50:36;;;;;;;11.13;9.33;;;9.10;99.90;;;;;;5042850;28;20284;-52
2021/05/06 08:53:02;;;;;;;11.60;9.40;;;9.10;1.00;;;;;;5035399;28;20251;-52
2021/05/06 08:55:29;;;;;;;15.17;9.63;;;9.10;99.90;;;;;;5041018;28;20306;-52
2021/05/06 08:57:55;;;;;;;12.83;10.17;;;9.40;1.00;;;;;;5038698;28;20205;-52
2021/05/06 09:00:22;;;;;;;13.53;9.23;;;9.60;1.00;;;;;;5039214;28;20232;-51
2021/05/06 09:02:48;;;;;;;11.77;8.60;;;9.70;99.90;;;;;;5040414;28;20215;-52
2021/05/06 09:05:15;;;;;;;9.47;7.83;;;9.60;99.90;;;;;;5034337;28;20305;-51
2021/05/06 09:07:45;;;;;;;8.77;7.80;;;9.60;99.90;;;;;;5040575;28;20195;-52
2021/05/06 09:10:35;;;;;;;9.37;8.27;;;9.80;1.00;;;;;;5038963;28;20208;-52
2021/05/06 09:13:04;;;;;;;10.93;7.73;;;10.60;99.90;;;;;;5040128;28;20252;-52
2021/05/06 09:15:30;;;;;;;11.57;9.17;;;10.70;1.00;;;;;;5038094;28;20204;-52
2021/05/06 09:17:57;;;;;;;11.40;9.30;;;10.60;1.00;;;;;;5038449;28;20248;-52
2021/05/06 09:20:25;;;;;;;12.03;8.47;;;10.10;99.90;;;;;;5039165;28;20286;-51
2021/05/06 09:22:59;;;;;;;11.13;8.90;;;10.10;1.00;;;;;;5038942;28;20304;-51
2021/05/06 09:25:35;;;;;;;8.43;7.40;;;10.00;99.90;;;;;;5039058;28;20211;-51
2021/05/06 09:28:02;;;;;;;8.27;6.73;;;10.00;1.00;;;;;;5038875;28;20227;-53
2021/05/06 09:30:30;;;;;;;9.93;7.13;;;10.10;99.90;;;;;;5038491;28;20665;-51
2021/05/06 09:33:09;;;;;;;7.50;6.57;;;10.20;1.00;;;;;;5039313;28;20249;-52
2021/05/06 09:35:44;;;;;;;8.57;7.67;;;10.10;99.90;;;;;;5039223;28;20208;-52
2021/05/06 09:38:29;;;;;;;9.17;7.77;;;9.90;1.00;;;;;;5037897;28;20623;-51
2021/05/06 09:41:02;;;;;;;9.07;6.93;;;10.00;1.00;;;;;;5035678;28;20208;-51
2021/05/06 09:43:42;;;;;;;7.30;6.27;;;10.10;1.00;;;;;;5039230;28;20225;-51
2021/05/06 09:46:37;;;;;;;7.27;6.57;;;9.80;1.00;;;;;;5036670;28;20202;-52
2021/05/06 09:49:06;;;;;;;8.03;6.37;;;9.90;1.00;;;;;;5038976;28;20312;-52
2021/05/06 09:51:39;;;;;;;8.53;6.70;;;9.80;1.00;;;;;;5039235;28;20217;-51
2021/05/06 09:54:07;;;;;;;6.87;6.13;;;10.10;1.00;;;;;;5038260;28;20213;-51
2021/05/06 09:56:35;;;;;;;7.07;5.90;;;10.70;1.00;;;;;;5039409;28;20205;-51
2021/05/06 09:59:02;;;;;;;6.50;5.40;;;11.10;1.00;;;;;;5038344;28;20206;-52
2021/05/06 10:02:07;;;;;;;6.97;5.87;;;11.20;99.90;;;;;;5037415;28;20216;-51
2021/05/06 10:04:34;;;;;;;6.70;5.93;;;11.10;99.90;;;;;;5041100;28;20243;-51
2021/05/06 10:07:25;;;;;;;7.20;6.07;;;10.80;99.90;;;;;;5037168;28;20292;-52
2021/05/06 10:10:19;;;;;;;8.73;6.17;;;11.00;99.90;;;;;;5038071;28;20211;-51
2021/05/06 10:12:46;;;;;;;7.53;5.77;;;10.90;99.90;;;;;;5039043;28;20321;-52
2021/05/06 10:15:14;;;;;;;5.93;5.33;;;10.80;99.90;;;;;;5031260;28;20616;-51
2021/05/06 10:17:40;;;;;;;6.80;6.10;;;10.90;99.90;;;;;;5039199;28;20664;-52
2021/05/06 10:20:08;;;;;;;6.80;6.07;;;10.90;99.90;;;;;;5032615;28;20302;-52
2021/05/06 10:22:35;;;;;;;7.87;5.50;;;11.10;99.90;;;;;;5036725;28;20231;-51
2021/05/06 10:25:04;;;;;;;5.50;4.90;;;11.40;1.00;;;;;;5039220;28;21055;-52
2021/05/06 10:27:30;;;;;;;6.20;5.30;;;11.20;1.00;;;;;;5038504;28;20659;-52
2021/05/06 10:29:57;;;;;;;6.77;5.20;;;11.50;1.00;;;;;;5038097;28;20215;-52
2021/05/06 10:32:30;;;;;;;5.77;5.17;;;11.80;1.00;;;;;;5036440;28;20305;-52
2021/05/06 10:35:01;;;;;;;6.93;5.40;;;11.90;1.00;;;;;;5038089;28;20700;-52
2021/05/06 10:37:30;;;;;;;6.23;5.63;;;12.00;1.00;;;;;;5038029;28;20751;-51
2021/05/06 10:39:57;;;;;;;5.97;4.60;;;11.80;1.00;;;;;;5035440;28;20235;-51
2021/05/06 10:42:26;;;;;;;6.17;5.20;;;11.90;1.00;;;;;;5037935;28;20211;-52
2021/05/06 10:44:57;;;;;;;5.30;4.67;;;11.70;1.00;;;;;;5038059;28;20325;-52
2021/05/06 10:47:42;;;;;;;5.37;4.87;;;11.40;1.00;;;;;;5037731;28;20206;-52
2021/05/06 10:50:13;;;;;;;5.30;4.80;;;11.30;1.00;;;;;;5038476;28;20292;-52
2021/05/06 10:52:45;;;;;;;5.67;5.10;;;11.70;1.00;;;;;;5035837;28;20259;-52
2021/05/06 10:55:14;;;;;;;7.80;5.27;;;11.30;1.00;;;;;;5037378;28;20220;-53
2021/05/06 10:57:41;;;;;;;5.80;5.20;;;11.20;1.00;;;;;;5037754;28;20237;-53
2021/05/06 11:00:23;;;;;;;6.33;5.43;;;11.40;1.00;;;;;;5035710;28;20210;-53
2021/05/06 11:03:03;;;;;;;5.83;5.20;;;11.60;1.00;;;;;;5038174;28;20206;-52
2021/05/06 11:05:30;;;;;;;8.23;5.87;;;11.60;1.00;;;;;;5037559;28;20218;-52
2021/05/06 11:08:02;;;;;;;6.53;5.87;;;11.60;1.00;;;;;;5032371;28;20235;-52
2021/05/06 11:10:35;;;;;;;6.30;5.70;;;11.60;1.00;;;;;;5037229;28;20206;-52
2021/05/06 11:13:01;;;;;;;6.23;5.50;;;11.80;1.00;;;;;;5037698;28;20204;-52
2021/05/06 11:15:31;;;;;;;6.03;5.43;;;11.80;1.00;;;;;;5036535;28;20200;-52
2021/05/06 11:17:59;;;;;;;6.60;5.20;;;11.60;1.00;;;;;;5033167;28;20287;-52
2021/05/06 11:20:29;;;;;;;6.23;5.30;;;11.60;1.00;;;;;;5037203;28;20285;-52
2021/05/06 11:23:01;;;;;;;6.20;5.60;;;11.70;1.00;;;;;;5037461;28;20257;-52
2021/05/06 11:25:41;;;;;;;6.03;5.53;;;11.80;1.00;;;;;;5030325;28;20255;-52
2021/05/06 11:28:19;;;;;;;7.67;6.00;;;11.70;1.00;;;;;;5035713;28;20230;-52
2021/05/06 11:30:56;;;;;;;7.60;5.10;;;12.00;1.00;;;;;;5035762;28;20429;-52
2021/05/06 11:33:25;;;;;;;5.90;5.37;;;11.70;1.00;;;;;;5035463;28;20608;-52
2021/05/06 11:35:57;;;;;;;6.60;5.10;;;11.50;1.00;;;;;;5037276;28;20210;-52
2021/05/06 11:38:42;;;;;;;5.80;5.20;;;11.40;1.00;;;;;;5035961;28;20232;-52
2021/05/06 11:41:09;;;;;;;5.57;5.07;;;11.90;99.90;;;;;;5036348;28;20615;-52
2021/05/06 11:43:47;;;;;;;10.50;5.63;;;11.80;99.90;;;;;;5038113;28;20370;-52
2021/05/06 11:46:24;;;;;;;6.00;5.40;;;12.00;1.00;;;;;;5035071;28;20690;-52
2021/05/06 11:49:00;;;;;;;5.90;5.17;;;12.30;99.90;;;;;;5037698;28;20290;-52
2021/05/06 11:51:31;;;;;;;6.70;6.10;;;12.00;99.90;;;;;;5036114;28;20385;-51
2021/05/06 11:54:20;;;;;;;5.87;5.20;;;11.80;99.90;;;;;;5036285;28;20289;-52
2021/05/06 11:56:50;;;;;;;6.70;5.43;;;12.10;99.90;;;;;;5031850;28;20224;-52
2021/05/06 11:59:18;;;;;;;7.50;5.50;;;12.70;99.90;;;;;;5034732;28;20252;-52
2021/05/06 12:01:45;;;;;;;12.57;5.83;;;12.70;99.90;;;;;;5036514;28;20701;-52
2021/05/06 12:04:41;;;;;;;9.70;6.63;;;12.60;99.90;;;;;;5036731;28;20227;-52
2021/05/06 12:07:20;;;;;;;6.40;5.80;;;12.90;99.90;;;;;;5037462;28;20269;-53
2021/05/06 12:09:48;;;;;;;5.23;4.73;;;12.90;99.90;;;;;;5037099;28;20677;-52
2021/05/06 12:12:28;;;;;;;5.80;4.80;;;12.70;99.90;;;;;;5032525;28;20547;-52
2021/05/06 12:14:58;;;;;;;4.60;4.10;;;12.70;99.90;;;;;;5036069;28;20207;-52
2021/05/06 12:17:25;;;;;;;4.50;4.00;;;12.70;99.90;;;;;;5037195;28;20215;-52
2021/05/06 12:19:51;;;;;;;4.80;3.80;;;12.50;99.90;;;;;;5036106;28;20555;-52
2021/05/06 12:22:18;;;;;;;4.50;3.87;;;12.40;99.90;;;;;;5035204;28;20219;-51
2021/05/06 12:24:53;;;;;;;3.60;3.30;;;12.60;99.90;;;;;;5030437;28;20584;-52
2021/05/06 12:27:29;;;;;;;3.50;3.20;;;12.60;99.90;;;;;;5036280;28;20316;-52
2021/05/06 12:29:56;;;;;;;4.97;3.27;;;12.10;1.00;;;;;;5035405;28;20213;-52
2021/05/06 12:32:30;;;;;;;3.17;2.87;;;11.80;1.00;;;;;;5036252;28;20242;-52
2021/05/06 12:35:01;;;;;;;4.00;3.00;;;11.40;1.00;;;;;;5036776;28;20314;-52
2021/05/06 12:37:30;;;;;;;6.60;3.30;;;11.90;1.00;;;;;;5036962;28;20546;-52
2021/05/06 12:39:57;;;;;;;3.83;3.20;;;12.00;1.00;;;;;;5035974;28;20230;-52
2021/05/06 12:42:37;;;;;;;4.40;3.70;;;12.10;1.00;;;;;;5038628;28;20273;-52
2021/05/06 12:45:18;;;;;;;4.23;3.33;;;12.20;1.00;;;;;;5035611;28;20234;-53
2021/05/06 12:47:48;;;;;;;4.30;3.90;;;12.10;1.00;;;;;;5036411;28;20233;-52
2021/05/06 12:50:22;;;;;;;4.87;3.90;;;12.20;1.00;;;;;;5035857;28;20208;-53
2021/05/06 12:52:49;;;;;;;4.30;3.90;;;12.40;1.00;;;;;;5035502;28;20209;-52
2021/05/06 12:55:27;;;;;;;4.90;3.97;;;12.30;1.00;;;;;;5039294;28;20391;-52
2021/05/06 12:58:15;;;;;;;8.37;4.00;;;12.50;1.00;;;;;;5041106;28;20257;-53
2021/05/06 13:00:42;;;;;;;4.77;4.23;;;12.60;99.90;;;;;;5038416;28;20724;-52
2021/05/06 13:03:11;;;;;;;4.53;4.00;;;12.70;99.90;;;;;;5040465;28;20584;-53
2021/05/06 13:05:43;;;;;;;6.80;4.40;;;12.90;99.90;;;;;;5039271;28;20204;-52
2021/05/06 13:08:10;;;;;;;5.93;4.40;;;12.80;99.90;;;;;;5038708;28;20521;-52
2021/05/06 13:10:37;;;;;;;5.43;4.93;;;12.60;1.00;;;;;;5038483;28;20574;-52
2021/05/06 13:13:09;;;;;;;7.37;4.90;;;11.90;99.90;;;;;;5039023;28;20211;-53
2021/05/06 13:15:49;;;;;;;5.67;5.00;;;11.60;1.00;;;;;;5037184;28;20478;-52
2021/05/06 13:18:17;;;;;;;5.33;4.67;;;11.20;1.00;;;;;;5039298;28;20241;-52
2021/05/06 13:20:44;;;;;;;6.37;4.83;;;11.50;1.00;;;;;;5039257;28;20199;-53
2021/05/06 13:23:12;;;;;;;4.57;4.17;;;11.50;99.90;;;;;;5037702;28;20275;-51
2021/05/06 13:25:43;;;;;;;5.40;4.67;;;11.70;1.00;;;;;;5039453;28;20304;-51
2021/05/06 13:28:12;;;;;;;7.53;5.33;;;11.80;1.00;;;;;;5038387;28;20233;-51
2021/05/06 13:30:39;;;;;;;5.30;4.80;;;11.90;1.00;;;;;;5037847;28;20235;-53
2021/05/06 13:33:23;;;;;;;8.50;5.20;;;11.80;1.00;;;;;;5036623;28;20365;-53
2021/05/06 13:36:26;;;;;;;5.60;4.97;;;11.50;1.00;;;;;;5038930;28;20271;-51
2021/05/06 13:39:03;;;;;;;6.03;5.07;;;11.40;1.00;;;;;;5038872;28;20216;-51
2021/05/06 13:41:32;;;;;;;5.90;5.07;;;11.40;1.00;;;;;;5038687;28;20228;-51
2021/05/06 13:44:01;;;;;;;5.30;4.80;;;11.50;1.00;;;;;;5039383;28;20276;-51
2021/05/06 13:46:30;;;;;;;5.50;5.00;;;11.30;99.90;;;;;;5037983;28;20201;-51
2021/05/06 13:48:58;;;;;;;5.90;5.10;;;11.10;1.00;;;;;;5039450;28;20226;-50
2021/05/06 13:51:26;;;;;;;5.70;5.20;;;11.20;1.00;;;;;;5037774;28;20299;-51
2021/05/06 13:53:54;;;;;;;7.03;5.67;;;11.10;1.00;;;;;;5038352;28;20220;-51
2021/05/06 13:56:21;;;;;;;5.70;5.20;;;11.10;1.00;;;;;;5039388;28;20347;-52
2021/05/06 13:58:49;;;;;;;6.53;4.97;;;11.10;1.00;;;;;;5038730;28;20239;-51
2021/05/06 14:01:16;;;;;;;5.70;5.13;;;11.10;1.00;;;;;;5037530;28;20218;-51
2021/05/06 14:03:43;;;;;;;6.90;5.57;;;11.40;1.00;;;;;;5038567;28;20249;-51
2021/05/06 14:06:10;;;;;;;7.00;5.17;;;11.60;1.00;;;;;;5037837;28;20596;-51
2021/05/06 14:08:37;;;;;;;6.80;6.03;;;11.60;99.90;;;;;;5037651;28;20587;-51
2021/05/06 14:11:04;;;;;;;7.07;5.67;;;11.50;99.90;;;;;;5038693;28;20564;-51
2021/05/06 14:13:31;;;;;;;6.50;5.37;;;11.30;99.90;;;;;;5038685;28;20241;-52
2021/05/06 14:15:58;;;;;;;5.87;5.27;;;11.20;99.90;;;;;;5037904;28;20597;-52
2021/05/06 14:18:25;;;;;;;6.57;5.50;;;11.30;99.90;;;;;;5038544;28;20207;-51
2021/05/06 14:20:53;;;;;;;6.13;5.30;;;11.50;99.90;;;;;;5038015;28;20233;-52
2021/05/06 14:23:21;;;;;;;6.77;5.83;;;11.50;1.00;;;;;;5037123;28;20225;-51
2021/05/06 14:25:48;;;;;;;5.63;5.00;;;11.30;1.00;;;;;;5032996;28;20211;-51
2021/05/06 14:28:14;;;;;;;6.30;5.70;;;11.40;99.90;;;;;;5032780;28;20226;-51
2021/05/06 14:30:41;;;;;;;6.40;5.33;;;11.50;99.90;;;;;;5036906;28;20728;-52
2021/05/06 14:33:07;;;;;;;6.30;5.70;;;11.70;99.90;;;;;;5037211;28;20263;-52
2021/05/06 14:35:34;;;;;;;7.83;5.80;;;11.60;99.90;;;;;;5038260;28;20216;-52
2021/05/06 14:38:01;;;;;;;6.30;5.50;;;11.30;99.90;;;;;;5037511;28;20659;-51
2021/05/06 14:40:27;;;;;;;8.53;6.77;;;11.40;99.90;;;;;;5037192;28;20206;-52
2021/05/06 14:42:54;;;;;;;7.17;5.63;;;11.30;99.90;;;;;;5032552;28;20257;-52
2021/05/06 14:45:20;;;;;;;7.43;6.13;;;11.30;99.90;;;;;;5035344;28;20288;-52
2021/05/06 14:47:47;;;;;;;8.30;5.97;;;11.00;1.00;;;;;;5037707;28;20282;-52
2021/05/06 14:50:15;;;;;;;6.33;5.70;;;11.20;1.00;;;;;;5038477;28;20232;-52
2021/05/06 14:52:42;;;;;;;9.30;6.40;;;11.00;1.00;;;;;;5036915;28;20201;-52
2021/05/06 14:55:10;;;;;;;7.47;5.60;;;11.00;1.00;;;;;;5036909;28;20268;-51
2021/05/06 14:57:38;;;;;;;11.40;6.63;;;11.10;1.00;;;;;;5030910;28;20215;-52
2021/05/06 15:00:06;;;;;;;8.23;5.90;;;11.00;1.00;;;;;;5036294;28;20248;-51
2021/05/06 15:02:32;;;;;;;6.80;6.10;;;11.30;1.00;;;;;;5036584;28;20275;-51
2021/05/06 15:04:58;;;;;;;6.63;5.53;;;11.20;1.00;;;;;;5037542;28;20222;-54
2021/05/06 15:07:25;;;;;;;6.67;5.97;;;11.10;1.00;;;;;;5031061;28;20630;-51
2021/05/06 15:09:52;;;;;;;8.83;5.77;;;11.20;1.00;;;;;;5037319;28;20222;-52
2021/05/06 15:12:18;;;;;;;6.87;6.13;;;11.10;1.00;;;;;;5036498;28;20558;-52
2021/05/06 15:14:45;;;;;;;8.47;5.87;;;11.00;1.00;;;;;;5036062;28;20271;-51
2021/05/06 15:17:11;;;;;;;7.63;6.07;;;11.10;1.00;;;;;;5035718;28;20302;-51
2021/05/06 15:19:37;;;;;;;7.97;6.30;;;11.10;1.00;;;;;;5036954;28;20577;-51
2021/05/06 15:22:04;;;;;;;5.77;5.17;;;11.30;1.00;;;;;;5034433;28;20283;-52
2021/05/06 15:24:42;;;;;;;5.63;5.07;;;11.10;1.00;;;;;;5036158;28;20219;-51
2021/05/06 15:27:09;;;;;;;7.53;5.30;;;11.40;99.90;;;;;;5038730;28;20227;-52
2021/05/06 15:29:35;;;;;;;5.87;5.27;;;11.10;99.90;;;;;;5030600;28;20244;-51
2021/05/06 15:32:02;;;;;;;5.03;4.53;;;11.10;99.90;;;;;;5037212;28;20312;-51
2021/05/06 15:34:28;;;;;;;4.73;4.33;;;11.30;99.90;;;;;;5036905;28;20269;-51
2021/05/06 15:37:03;;;;;;;5.20;4.67;;;11.30;54.00;;;;;;5036591;28;20217;-51
2021/05/06 15:39:29;;;;;;;4.53;4.10;;;11.20;1.00;;;;;;5030872;28;20310;-52
2021/05/06 15:41:56;;;;;;;4.03;3.73;;;11.20;1.00;;;;;;5037096;28;20700;-52
2021/05/06 15:44:22;;;;;;;5.87;4.23;;;11.20;1.00;;;;;;5036457;28;20340;-52
2021/05/06 15:46:48;;;;;;;4.73;4.17;;;11.40;1.00;;;;;;5037492;28;20596;-52
2021/05/06 15:49:15;;;;;;;6.17;4.60;;;11.20;1.00;;;;;;5036392;28;20384;-52
2021/05/06 15:51:41;;;;;;;5.87;4.60;;;11.30;1.00;;;;;;5036421;28;20241;-52
2021/05/06 15:54:16;;;;;;;5.20;4.70;;;11.50;1.00;;;;;;5036572;28;20204;-52
2021/05/06 15:56:42;;;;;;;6.00;4.13;;;11.30;41.80;;;;;;5032232;28;20266;-52
2021/05/06 15:59:09;;;;;;;6.30;4.00;;;11.50;1.00;;;;;;5036664;28;20209;-52
2021/05/06 16:01:35;;;;;;;5.03;4.53;;;11.50;1.00;;;;;;5036127;28;20242;-52
2021/05/06 16:04:05;;;;;;;6.70;4.80;;;11.40;1.00;;;;;;5034730;28;20235;-52
2021/05/06 16:06:31;;;;;;;5.20;4.70;;;11.60;1.00;;;;;;5036486;28;20195;-52
2021/05/06 16:08:58;;;;;;;5.07;4.43;;;11.60;1.00;;;;;;5035272;28;20259;-52
2021/05/06 16:11:25;;;;;;;4.33;3.93;;;11.50;1.00;;;;;;5036926;28;20201;-52
2021/05/06 16:13:51;;;;;;;5.50;4.80;;;11.50;1.00;;;;;;5037208;28;20213;-52
2021/05/06 16:16:18;;;;;;;5.17;4.33;;;11.40;1.00;;;;;;5037659;28;20709;-52